Aérodrome :
LOGIN :

S'inscrire | Disclaimer

   EN    FR    IT 

 










Légende :    VFR   VFR Marginal   IFR   IFR Intensif   IFR Très Intensif
Visi : 
Plafond : 
>= 8 km
>= 3000ft
5 à 8 km
1000 à 3000 ft
1500m à 5 km
500 à 1000 ft
800 à 1500m
200 à 500 ft
< 800m
< 200 ft
Symboles :   Orages  Brouillard  Fortes neiges  Fortes précipitations  Vent > 20 kt
SIGMETs :   Divers  Orages  Givrage  Turbulence  Onde Orograph.  Cendres Volcan.






- Altitude de l'aérodrome : 45 ft
- Code IATA : CEG


EGNR - Hawarden Chester

DERNIER METAR :
  • 040750Z 31010KT 260V340 9999 VCSH SCT015 BKN048 12/08 Q1006

METARs EXPIRÉS :
  • 040720Z 34006KT 280V040 9999 VCSH SCT015 BKN048 12/08 Q1006
  • 040650Z 22004KT 200V270 9999 VCSH SCT020 BKN048 10/08 Q1007

TAF TAF EGNR
Valide du 04 à 06h jusqu'au 04 à 15h UTC


040655Z 0406/0415 29009KT 9999 SCT025
PROB40
TEMPO 0412/0415 7000 SHRA BKN012



MET'MAP, la Météo Aéronautique d'un coup d'oeil ! - Copyright ORBIFLY Décembre 2007 - Disclaimer

ORBIFLY MET'MAP TEAM :

Programmation & Développement : Alexandra Zaïnal
Sur une idée originale de : Baudouin d'Aumeries
Assistance à la programmation : Marc-Olivier Méhu
Soutien technique & logistique : Manuel Goepfert

Contact : metmap@orbifly.com




SOURCES & CREDITS :

   NOAA